Terminal Aerodrome Forecast
Issued by NWS Portland, ME

Home | Current Version | Previous Version | Text Only | Print | Product List | Glossary On
Versions: 1 2 3 4 5 6 7 8 9 10 11 12 13 14 15 16 17 18 19 20 21 22 23 24 25 26
781
FTUS41 KGYX 181738
TAFPWM
TAF
KPWM 181738Z 1818/1918 17006KT P6SM BKN200
     FM190000 14004KT P6SM OVC050
     FM190300 16005KT 4SM -RA BR OVC015
     FM190900 17005KT 2SM RA BR OVC003 WS020/20035KT
     FM191400 20008G15KT 5SM -SHRA BR OVC003=

USA.gov is the U.S. government's official web portal to all federal, state and local government web resources and services.